Ganado, Arizona
Current Conditions -  °F | °C
As of 8:53 PM on Saturday 27 Dec 2014 (Local Time) from KRQE Reporting Station
Clear Clear  
Wind Chill:   Ceiling: Unl
Heat Index:   Visibility: 10mi
Dew Point:   Wind: 0mph
Humidity: 77%   Direction: NA
Pressure: 30.27"   Gusts: NA
Location:  35.71°N, 109.54°W
Report Text: KRQE 280353Z AUTO 00000KT 10SM CLR M13/M16 A3027 RMK AO2 SLP311 T11281161 TSNO
Loading
Personal Weather Stations






























Interactive Weather Map New forecast layout! Learn more

10-Day Weather Forecast

Advertisements
Track Severe Weather on mobile